Wednesday, June 20, 2018, 10:43 PM GMT
Back to Local

CYZV, Sept-Iles, Que.

Location: , , Canada Lat: 50.217
Local Time: 10:43 PM GMT (22:43 GMT) Lon: -66.267
Time Zone: GMT Elev: 180 ft

Show me the last for .
Show Decoded

2018-06-20 22:00 METAR CYZV 202200Z 31016G24KT 30SM SCT050TCU SCT090 BKN220 20/04 A2943 RMK
                 TCU3AC1CI1 SLP969 DENSITY ALT 1400FT =
2018-06-20 21:00 METAR CYZV 202100Z 28009G16KT 30SM FEW050TCU SCT120 BKN220 20/08 A2943 RMK
                 TCU2AC2CI1 SLP967 DENSITY ALT 1400FT =
2018-06-20 20:00 METAR CYZV 202000Z 30009G15KT 270V010 30SM BKN050TCU BKN080 BKN120 BKN200 19/08
                 A2943 RMK TCU5AC2AC1CI1 AC TR CI TR SLP967 DENSITY ALT 1300FT =
2018-06-20 19:28 METAR CYZV 201928Z 30009G18KT 260V340 30SM SCT050TCU BKN100 BKN220 20/09 A2942
                 RMK TCU3AC2CI1 SLP966 DENSITY ALT 1400FT =
2018-06-20 19:09 METAR CYZV 201909Z 31013G20KT 270V350 30SM -SHRA SCT050TCU BKN100 BKN220 20/10
                 A2942 RMK TCU3AC3CI1 SLP965 DENSITY ALT 1400FT =
2018-06-20 19:00 METAR CYZV 201900Z 32008KT 270V340 30SM SCT050TCU BKN090 BKN220 19/10 A2942 RMK
                 TCU3AC2CI1 SLP964 DENSITY ALT 1300FT =
2018-06-20 18:00 METAR CYZV 201800Z 24007KT 30SM SCT050TCU BKN090 BKN220 17/13 A2941 RMK
                 TCU3AC2CI1 SLP960 DENSITY ALT 1100FT =
2018-06-20 17:54 METAR CYZV 201754Z 25009KT 210V270 30SM SCT050TCU BKN090 17/13 A2941 RMK TCU4AC2
                 SLP960 DENSITY ALT 1100FT =
2018-06-20 17:00 METAR CYZV 201700Z 21006KT 30SM -SHRA BKN070TCU 18/11 A2941 RMK TCU5 SLP960
                 DENSITY ALT 1200FT =
2018-06-20 16:53 METAR CYZV 201653Z 22009KT 30SM -SHRA BKN070TCU 18/10 A2941 RMK TCU5 SLP962
                 DENSITY ALT 1200FT =
2018-06-20 16:00 METAR CYZV 201600Z 23011G16KT 200V260 30SM BKN070 BKN200 17/10 A2942 RMK AC5CI1
                 CI TR SLP966 DENSITY ALT 1100FT =
2018-06-20 15:00 METAR CYZV 201500Z 21010KT 200V260 30SM SCT050 BKN200 17/11 A2943 RMK CU4CI1
                 SLP968 DENSITY ALT 1100FT =
2018-06-20 14:00 METAR CYZV 201400Z 23010KT 30SM SCT050 SCT120 SCT200 14/10 A2945 RMK CU3AC1CI1
                 AC TR SLP975 DENSITY ALT 700FT =
2018-06-20 13:00 METAR CYZV 201300Z 24005KT 190V250 30SM FEW030 SCT050 SCT110 BKN200 12/09 A2946
                 RMK CU2SC1AC1CI1 SLP981 DENSITY ALT 500FT =
2018-06-20 12:00 METAR CYZV 201200Z 00000KT 30SM FEW004 FEW030 SCT050 BKN070 BKN110 10/08 A2948
                 RMK SF1CU1SC1AC2AC1 SLP987 =
2018-06-20 11:41 METAR CYZV 201141Z 12003KT 30SM FEW004 FEW030 SCT050 BKN070 09/08 A2949 RMK
                 SF1CU1SC2AC3 SLP989 =
2018-06-20 11:13 METAR CYZV 201113Z 07002KT 30SM -RA FEW004 FEW030 BKN054 BKN070 08/07 A2950 RMK
                 SF1CF1SC5AC2 SF TR CF TR SLP993 =
2018-06-20 11:00 METAR CYZV 201100Z 00000KT 15SM -RA FEW020 BKN050 OVC070 08/07 A2950 RMK
                 CF1SC6AC2 CF TR SLP994 =
2018-06-20 10:00 METAR CYZV 201000Z 00000KT 15SM -RA BKN060 OVC080 08/07 A2953 RMK SC6AC2 SLP004
                 =
2018-06-20 09:23 METAR CYZV 200923Z 04003KT 30SM -SHRA BKN080 BKN250 08/06 A2953 RMK AC7CI1 CI TR
                 CVCTV CLDS EMBD SLP003 =
2018-06-20 09:00 METAR CYZV 200900Z 00000KT 30SM BKN085 BKN140 BKN240 06/05 A2954 RMK AC5AC1CI1
                 SLP005 =
2018-06-20 08:00 METAR CYZV 200800Z 08002KT 30SM FEW095 SCT120 BKN240 06/05 A2955 RMK AC2AC2CI2
                 SLP009 =
2018-06-20 07:00 METAR CYZV 200700Z 00000KT 15SM BKN093 06/04 A2958 RMK AC7 NOCTILUCENT CLDS N
                 SLP020 =
2018-06-20 06:00 METAR CYZV 200600Z 29003KT 15SM FEW110 FEW220 08/05 A2959 RMK AC1CI1 NOCTILUCENT
                 CLDS N SLP023 =
2018-06-20 05:00 METAR CYZV 200500Z 27007KT 15SM FEW220 08/05 A2960 RMK CI2 SLP026 =
2018-06-20 04:00 METAR CYZV 200400Z 29006KT 15SM FEW230 10/05 A2960 RMK CI2 SLP028 =
2018-06-20 03:00 METAR CYZV 200300Z 31008KT 15SM FEW120 FEW250 11/05 A2960 RMK AC1CI1 AC TR CI TR
                 SLP028 DENSITY ALT 200FT =
2018-06-20 02:00 METAR CYZV 200200Z 30005KT 15SM FEW040 FEW065 FEW120 FEW250 12/05 A2962 RMK
                 SC1SC1AC1CI1 SC TR SC TR AC TR CI TR SLP033 DENSITY ALT 200FT =
2018-06-20 01:00 METAR CYZV 200100Z 32010G18KT 30SM FEW040 FEW100 FEW250 13/05 A2961 RMK
                 SC1AC1CI1 SC TR AC TR SLP031 DENSITY ALT 400FT =
2018-06-20 00:00 METAR CYZV 200000Z 31008KT 30SM FEW050 FEW060 FEW200 FEW250 14/06 A2959 RMK
                 CU1SC1CI1CI1 CU TR CI TR SLP023 DENSITY ALT 500FT =
2018-06-19 23:00 METAR CYZV 192300Z 32014G25KT 30SM FEW050 SCT065 SCT200 16/06 A2957 RMK
                 CU1SC2CI1 CI TR SLP017 DENSITY ALT 700FT =

Support USWX by starting your Amazon purchase here.